• Join FlightAware (Why Join?)
  • Login
  • US Flag 
03:23AM EDT


 

Airport Tracker/Info


-or-


 

Live Flight TrackerFlight Track Log ✈ N158RA ✈ 03-Jun-2014 ✈ KBKL - KBKL

Flight Track Log - Related Links

Times and Time Zones

All times are in EDT time to prevent confusion due to time zone crossing. See the N158RA flight status page for this flight to view local times or setup timezone preferences in your user account.

Time Position Orientation Groundspeed Altitude Reporting Facility
EDT Latitude Longitude Course Direction KTS MPH feet Rate Location/Type
06:48AM 41.5128 -81.6914 236° Southwest 61 70 900  Level Cleveland Center
06:48AM 41.5103 -81.6964 236° Southwest 64 74 1,000 480 Climbing Cleveland Center
06:49AM 41.5281 -81.7078 334° Northwest 102 117 1,600 540 Climbing Cleveland Center
06:50AM 41.5442 -81.7022 14° North 93 107 1,900 480 Climbing Cleveland Center
06:50AM 41.5539 -81.7006 North 96 110 2,100 60 Climbing Cleveland Center
06:51AM 41.5731 -81.7008 359° North 96 110 2,000  Descending Cleveland Center
06:51AM 41.5828 -81.7081 331° Northwest 107 123 2,100 480 Climbing Cleveland Center
06:52AM 41.5919 -81.7208 314° West 93 107 2,500 600 Climbing Cleveland Center
06:52AM 41.5956 -81.7297 299° West 68 78 2,700 480 Climbing Cleveland Center
06:53AM 41.6014 -81.7422 302° West 75 86 3,000 480 Climbing Cleveland Center
06:53AM 41.6039 -81.7508 291° West 61 70 3,200 480 Climbing Cleveland Center
06:54AM 41.6086 -81.7622 299° West 66 76 3,500 360 Climbing Cleveland Center
06:54AM 41.6083 -81.7711 268° West 56 64 3,600 360 Climbing Cleveland Center
06:55AM 41.6047 -81.7839 249° West 69 79 3,900 360 Climbing Cleveland Center
06:55AM 41.6064 -81.7931 284° West 65 75 4,000 60 Climbing Cleveland Center
06:56AM 41.6067 -81.8089 271° West 66 76 4,000  Level Cleveland Center
06:56AM 41.6078 -81.8242 276° West 82 94 4,000  Level Cleveland Center
06:57AM 41.6058 -81.8422 262° West 77 89 4,000  Level Cleveland Center
06:57AM 41.6047 -81.8572 264° West 93 107 4,000  Level Cleveland Center
06:58AM 41.6017 -81.8756 257° West 85 98 4,000  Level Cleveland Center
06:58AM 41.6000 -81.8872 259° West 86 99 4,000  Level Cleveland Center
06:59AM 41.5972 -81.9106 261° West 85 98 4,000  Level Cleveland Center
06:59AM 41.5972 -81.9175 270° West 81 93 4,000  Level Cleveland Center
07:00AM 41.5933 -81.9425 258° West 85 98 4,000  Level Cleveland Center
07:00AM 41.5919 -81.9503 257° West 86 99 4,000  Level Cleveland Center
07:01AM 41.5894 -81.9739 262° West 85 98 4,000  Level Cleveland Center
07:01AM 41.5889 -81.9833 266° West 88 101 4,000  Level Cleveland Center
07:02AM 41.5922 -82.0064 281° West 85 98 4,000  Level Cleveland Center
07:02AM 41.5922 -82.0144 270° West 86 99 4,000  Level Cleveland Center
07:03AM 41.5831 -82.0467 249° West 87 100 4,000  Level Cleveland Center
07:04AM 41.5833 -82.0689 271° West 85 98 4,000 -60 Level Cleveland Center
07:05AM 41.5833 -82.1083 270° West 83 96 3,900  Descending Cleveland Center
07:06AM 41.5794 -82.1319 258° West 85 98 4,000  Climbing Cleveland Center
07:07AM 41.5789 -82.1631 269° West 86 99 3,900  Descending Cleveland Center
07:08AM 41.5764 -82.1939 264° West 85 98 4,000  Climbing Cleveland Center
07:09AM 41.5733 -82.2306 264° West 85 98 4,000  Level Cleveland Center
07:10AM 41.5700 -82.2619 262° West 85 98 4,000 -300 Level Cleveland Center
07:11AM 41.5653 -82.2983 260° West 87 100 3,500 -540 Descending Cleveland Center
07:12AM 41.5642 -82.3317 267° West 88 101 3,000 -300 Descending Cleveland Center
07:13AM 41.5622 -82.3567 264° West 86 99 3,000  Level Cleveland Center
07:14AM 41.5606 -82.3897 266° West 78 90 3,000  Level Cleveland Center
07:15AM 41.5578 -82.4200 263° West 83 96 3,000  Level Cleveland Center
07:16AM 41.5547 -82.4503 262° West 83 96 3,000  Level Cleveland Center
07:17AM 41.5522 -82.4778 263° West 78 90 3,000  Level Cleveland Center
07:19AM 41.5508 -82.5061 266° West 81 93 3,100  Climbing Cleveland Center
07:20AM 41.5492 -82.5422 266° West 81 93 3,000 -60 Descending Cleveland Center
07:20AM 41.5450 -82.5717 259° West 85 98 3,000  Level Cleveland Center
07:22AM 41.5358 -82.6008 247° West 82 94 3,000  Level Cleveland Center
07:23AM 41.5389 -82.6322 277° West 84 97 3,000  Level Cleveland Center
07:23AM 41.5417 -82.6336 339° North 83 96 3,000 -120 Level Cleveland Center
07:24AM 41.5381 -82.6628 261° West 86 99 2,900 -240 Descending Cleveland Center
07:24AM 41.5392 -82.6653 301° West 83 96 2,800 -720 Descending Cleveland Center
07:25AM 41.5358 -82.6994 263° West 86 99 2,100 -600 Descending Cleveland Center
07:26AM 41.5314 -82.7289 259° West 90 104 1,700 -420 Descending Cleveland Center
07:26AM 41.5319 -82.7319 284° West 86 99 1,700  Level Cleveland Center
07:27AM 41.5264 -82.7586 254° West 80 92 1,700  Level Cleveland Center
07:27AM 41.5272 -82.7619 288° West 86 99 1,700  Level Cleveland Center
07:28AM 41.5214 -82.7886 254° West 81 93 1,700  Level Cleveland Center
07:28AM 41.5250 -82.7914 330° Northwest 84 97 1,700 -420 Level Cleveland Center
07:29AM 41.5225 -82.8194 263° West 83 96 1,300 -540 Descending Cleveland Center
07:29AM 41.5228 -82.8242 274° West 80 92 1,200 -240 Descending Cleveland Center
07:30AM 41.5222 -82.8419 268° West 70 81 1,100  Descending Cleveland Center
07:30AM 41.5197 -82.8494 246° West 73 84 1,200 600 Climbing Cleveland Center
07:31AM 41.5194 -82.8694 269° West 68 78 1,700 720 Climbing Cleveland Center
07:31AM 41.5194 -82.8761 270° West 72 83 2,000 660 Climbing Cleveland Center
07:32AM 41.5156 -82.8883 247° West 63 72 2,400 540 Climbing Cleveland Center
07:32AM 41.5067 -82.8775 138° Southeast 98 113 2,600 480 Climbing Cleveland Center
07:33AM 41.5006 -82.8492 106° East 126 145 2,900 240 Climbing Cleveland Center
07:33AM 41.5031 -82.8308 80° East 119 137 2,900 180 Level Cleveland Center
07:34AM 41.5097 -82.8006 74° East 142 163 3,100 180 Climbing Cleveland Center
07:34AM 41.5133 -82.7836 74° East 125 144 3,100 -120 Level Cleveland Center
07:35AM 41.5231 -82.7497 69° East 145 167 3,000 -120 Descending Cleveland Center
07:35AM 41.5267 -82.7314 75° East 140 161 3,000  Level Cleveland Center
07:36AM 41.5325 -82.6983 77° East 143 165 3,000  Level Cleveland Center
07:36AM 41.5372 -82.6811 70° East 142 163 3,000  Level Cleveland Center
07:37AM 41.5414 -82.6494 80° East 140 161 3,000  Level Cleveland Center
07:37AM 41.5464 -82.6308 70° East 141 162 3,000  Level Cleveland Center
07:38AM 41.5528 -82.5983 75° East 139 160 3,000  Level Cleveland Center
07:38AM 41.5567 -82.5792 75° East 141 162 3,000  Level Cleveland Center
07:39AM 41.5622 -82.5467 77° East 142 163 3,000 -120 Level Cleveland Center
07:39AM 41.5683 -82.5200 73° East 141 162 2,900  Descending Cleveland Center
07:40AM 41.5714 -82.4953 81° East 141 162 3,000 60 Climbing Cleveland Center
07:40AM 41.5747 -82.4672 81° East 141 162 3,000  Level Cleveland Center
07:41AM 41.5767 -82.4428 84° East 141 162 3,000  Level Cleveland Center
07:41AM 41.5786 -82.4144 85° East 141 162 3,000  Level Cleveland Center
07:42AM 41.5794 -82.3903 87° East 141 162 3,000  Level Cleveland Center
07:42AM 41.5817 -82.3619 84° East 141 162 3,000  Level Cleveland Center
07:43AM 41.5828 -82.3347 87° East 144 166 3,000  Level Cleveland Center
07:43AM 41.5853 -82.3078 83° East 141 162 3,000  Level Cleveland Center
07:44AM 41.5858 -82.2822 88° East 144 166 3,000  Level Cleveland Center
07:44AM 41.5900 -82.2547 79° East 142 163 3,000  Level Cleveland Center
07:45AM 41.5911 -82.2269 87° East 144 166 3,000  Level Cleveland Center
07:45AM 41.5936 -82.2003 83° East 142 163 3,000  Level Cleveland Center
07:46AM 41.5961 -82.1747 83° East 145 167 3,000  Level Cleveland Center
07:46AM 41.5981 -82.1456 85° East 142 163 3,000  Level Cleveland Center
07:47AM 41.5992 -82.1192 87° East 146 168 3,000  Level Cleveland Center
07:47AM 41.6019 -82.0925 82° East 143 165 3,000  Level Cleveland Center
07:48AM 41.6042 -82.0669 83° East 142 163 3,000  Level Cleveland Center
07:48AM 41.6058 -82.0400 85° East 142 163 3,000  Level Cleveland Center
07:49AM 41.6069 -82.0142 87° East 143 165 3,000  Level Cleveland Center
07:49AM 41.6103 -81.9767 83° East 143 165 3,000  Level Cleveland Center
07:50AM 41.6122 -81.9592 82° East 146 168 3,000  Level Cleveland Center
07:50AM 41.6150 -81.9219 84° East 143 165 3,000  Level Cleveland Center
07:51AM 41.6153 -81.9036 89° East 146 168 3,000  Level Cleveland Center
07:51AM 41.6192 -81.8692 81° East 143 165 3,000  Level Cleveland Center
07:52AM 41.6200 -81.8511 86° East 142 163 3,000  Level Cleveland Center
07:53AM 41.6225 -81.8161 85° East 143 165 3,000  Level Cleveland Center
07:53AM 41.6247 -81.7989 80° East 141 162 3,000  Level Cleveland Center
07:54AM 41.6267 -81.7622 86° East 143 165 3,000  Level Cleveland Center
07:54AM 41.6275 -81.7461 86° East 144 166 3,000  Level Cleveland Center
07:55AM 41.6317 -81.7092 81° East 143 165 3,000  Level Cleveland Center
07:55AM 41.6347 -81.6914 77° East 143 165 3,000  Level Cleveland Center
07:56AM 41.6372 -81.6561 85° East 143 165 3,000  Level Cleveland Center
07:56AM 41.6394 -81.6389 80° East 142 163 3,000  Level Cleveland Center
07:57AM 41.6417 -81.6033 85° East 143 165 3,000  Level Cleveland Center
07:57AM 41.6419 -81.5861 89° East 142 163 3,000  Level Cleveland Center
07:58AM 41.6347 -81.5522 106° East 146 168 3,000 60 Level Cleveland Center
07:58AM 41.6272 -81.5392 128° Southeast 141 162 3,100  Climbing Cleveland Center
07:59AM 41.6083 -81.5208 144° Southeast 140 161 3,000 -540 Descending Cleveland Center
07:59AM 41.5989 -81.5289 213° Southwest 124 143 2,600 -540 Descending Cleveland Center
08:00AM 41.5803 -81.5483 218° Southwest 85 98 2,400 -240 Descending Cleveland Center
08:01AM 41.5717 -81.5728 245° Southwest 92 106 2,200 -360 Descending Cleveland Center
08:02AM 41.5572 -81.5992 234° Southwest 92 106 1,800 -360 Descending Cleveland Center
08:03AM 41.5453 -81.6206 233° Southwest 81 93 1,500 -420 Descending Cleveland Center
08:04AM 41.5336 -81.6469 239° Southwest 79 91 1,000 -300 Descending Cleveland Center
08:05AM 41.5217 -81.6719 237° Southwest 79 91 1,000  Level Cleveland Center